Time;durP1;ratioP1;P1;durP2;ratioP2;P2;SDS_P1;SDS_P2;PMS_P1;PMS_P2;Temp;Humidity;BMP_temperature;BMP_pressure;BME280_temperature;BME280_humidity;BME280_pressure;Samples;Min_cycle;Max_cycle;Signal;HPM_P1;HPM_P2
2022/11/03 00:01:13;;;;;;;3.85;1.73;;;;;;;28.60;20.62;98873.63;6244936;23;20008;-78
2022/11/03 00:03:39;;;;;;;3.95;1.90;;;;;;;28.73;20.43;98871.63;6244795;23;20019;-78
2022/11/03 00:06:05;;;;;;;5.95;2.05;;;;;;;28.69;20.78;98876.59;6244942;23;20370;-77
2022/11/03 00:08:32;;;;;;;5.07;2.15;;;;;;;28.64;20.82;98868.66;6244671;22;20505;-78
2022/11/03 00:11:06;;;;;;;8.13;2.30;;;;;;;28.65;20.88;98868.25;6244660;22;20004;-78
2022/11/03 00:13:33;;;;;;;6.40;2.60;;;;;;;28.68;21.21;98872.97;6245188;22;20083;-77
2022/11/03 00:15:59;;;;;;;5.25;2.20;;;;;;;28.92;20.90;98875.53;6244992;22;20012;-77
2022/11/03 00:18:25;;;;;;;3.80;1.92;;;;;;;29.14;20.27;98873.69;6244766;23;20058;-77
2022/11/03 00:21:08;;;;;;;4.18;2.00;;;;;;;29.20;20.28;98883.22;6244502;23;20066;-77
2022/11/03 00:23:37;;;;;;;5.53;2.95;;;;;;;29.40;20.33;98883.81;6244980;22;20008;-77
2022/11/03 00:26:12;;;;;;;4.78;2.88;;;;;;;29.45;20.00;98885.28;6244406;22;20010;-77
2022/11/03 00:28:42;;;;;;;5.40;2.75;;;;;;;29.55;20.05;98884.16;6244588;22;20012;-78
2022/11/03 00:31:20;;;;;;;5.60;2.03;;;;;;;29.54;19.76;98879.75;6245172;22;20000;-77
2022/11/03 00:33:47;;;;;;;4.47;1.90;;;;;;;29.45;20.17;98888.13;6245122;22;20016;-78
2022/11/03 00:36:16;;;;;;;3.85;1.98;;;;;;;29.20;20.47;98875.53;6247312;22;20023;-77
2022/11/03 00:38:42;;;;;;;4.00;1.95;;;;;;;29.24;19.89;98879.03;6246561;22;20077;-78
2022/11/03 00:41:10;;;;;;;6.53;2.20;;;;;;;29.10;19.98;98878.66;6246727;22;20481;-78
2022/11/03 00:43:36;;;;;;;4.85;2.13;;;;;;;29.14;19.77;98882.97;6247162;22;20019;-78
2022/11/03 00:46:04;;;;;;;5.43;2.30;;;;;;;29.13;20.04;98875.72;6246653;23;20004;-78
2022/11/03 00:48:31;;;;;;;3.53;1.83;;;;;;;28.87;20.13;98876.88;6246844;22;20012;-78
2022/11/03 00:51:17;;;;;;;2.60;1.75;;;;;;;28.50;20.50;98883.16;6247160;22;20079;-78
2022/11/03 00:53:50;;;;;;;5.32;1.95;;;;;;;28.22;20.75;98881.88;6247067;22;20058;-78
2022/11/03 00:56:25;;;;;;;2.70;1.75;;;;;;;28.31;20.80;98875.63;6246675;22;20438;-78
2022/11/03 00:58:53;;;;;;;5.07;1.63;;;;;;;28.33;20.79;98876.78;6246657;22;20048;-78
2022/11/03 01:01:20;;;;;;;4.65;1.95;;;;;;;28.39;20.91;98879.84;6246604;22;20012;-78
2022/11/03 01:06:49;;;;;;;4.45;2.05;;;;;;;28.44;20.46;98885.75;6246719;23;20453;-78
2022/11/03 01:09:30;;;;;;;4.75;1.85;;;;;;;28.23;20.49;98885.50;6245846;22;20008;-78
2022/11/03 01:12:16;;;;;;;5.85;1.60;;;;;;;28.14;20.66;98888.16;6246991;22;20039;-77
2022/11/03 01:14:48;;;;;;;4.88;1.63;;;;;;;27.96;20.73;98883.72;6245688;22;20431;-78
2022/11/03 01:17:23;;;;;;;4.00;1.50;;;;;;;27.82;20.98;98886.13;6246133;22;20024;-77
2022/11/03 01:19:49;;;;;;;2.70;1.60;;;;;;;27.92;20.78;98883.03;6245543;22;20438;-78
2022/11/03 01:22:16;;;;;;;4.50;1.80;;;;;;;28.17;20.26;98884.47;6245622;22;20008;-77
2022/11/03 01:24:43;;;;;;;3.95;1.65;;;;;;;28.12;20.19;98885.78;6245834;22;20369;-78
2022/11/03 01:27:12;;;;;;;3.08;1.55;;;;;;;28.09;20.42;98881.03;6246315;22;20085;-78
2022/11/03 01:29:38;;;;;;;2.95;1.30;;;;;;;28.03;20.20;98883.56;6246309;22;20016;-78
2022/11/03 01:32:04;;;;;;;3.33;1.63;;;;;;;28.15;20.27;98886.91;6245873;23;20011;-78
2022/11/03 01:34:30;;;;;;;4.95;1.67;;;;;;;27.90;20.05;98885.50;6246134;23;20008;-78
2022/11/03 01:36:57;;;;;;;2.83;1.55;;;;;;;27.53;20.80;98885.19;6245783;23;20008;-79
2022/11/03 01:39:23;;;;;;;3.80;1.75;;;;;;;27.19;21.21;98880.69;6246321;23;20337;-79
2022/11/03 01:41:50;;;;;;;4.75;2.25;;;;;;;27.34;21.14;98884.78;6245983;23;20012;-79
2022/11/03 01:44:16;;;;;;;5.90;1.92;;;;;;;27.18;21.19;98887.56;6245732;22;20036;-79
2022/11/03 01:46:58;;;;;;;5.25;1.42;;;;;;;26.95;21.43;98892.50;6245944;23;20012;-79
2022/11/03 01:49:52;;;;;;;4.60;2.17;;;;;;;27.22;21.16;98888.28;6244208;23;20422;-79
2022/11/03 01:52:23;;;;;;;5.47;2.22;;;;;;;27.69;20.72;98886.03;6246173;23;20047;-79
2022/11/03 01:54:58;;;;;;;4.43;1.90;;;;;;;27.86;20.22;98892.47;6246921;22;20330;-79
2022/11/03 01:57:36;;;;;;;3.13;1.77;;;;;;;28.03;20.14;98892.03;6246693;22;20372;-79
2022/11/03 02:00:04;;;;;;;5.57;1.80;;;;;;;28.00;20.14;98880.84;6245950;22;20368;-79
2022/11/03 02:02:30;;;;;;;3.72;1.75;;;;;;;28.02;19.77;98882.00;6246255;22;20085;-79
2022/11/03 02:04:58;;;;;;;5.43;1.50;;;;;;;27.88;19.67;98870.25;6246177;23;20011;-79
2022/11/03 02:07:34;;;;;;;3.50;1.50;;;;;;;27.65;20.19;98871.22;6245740;22;19999;-79
2022/11/03 02:10:01;;;;;;;5.75;2.20;;;;;;;27.75;20.44;98881.44;6246178;22;20341;-79
2022/11/03 02:12:28;;;;;;;4.68;1.88;;;;;;;27.48;20.63;98875.22;6246032;22;20062;-79
2022/11/03 02:14:59;;;;;;;4.88;2.22;;;;;;;27.17;21.11;98871.06;6246408;22;20004;-79
2022/11/03 02:17:29;;;;;;;7.47;1.75;;;;;;;26.73;21.70;98881.63;6246306;22;20079;-79
2022/11/03 02:20:06;;;;;;;4.63;1.67;;;;;;;26.53;21.98;98892.09;6246009;22;20087;-79
2022/11/03 02:23:07;;;;;;;2.42;1.55;;;;;;;26.77;22.17;98877.97;6245401;22;20058;-79
2022/11/03 02:25:54;;;;;;;3.05;1.73;;;;;;;27.21;21.18;98886.66;6199412;22;20018;-79
2022/11/03 02:28:29;;;;;;;5.82;2.00;;;;;;;27.21;20.81;98883.84;6246040;22;20127;-79
2022/11/03 02:31:09;;;;;;;4.32;2.38;;;;;;;27.33;21.22;98879.56;6246166;22;20000;-79
2022/11/03 02:33:58;;;;;;;3.05;1.83;;;;;;;27.68;20.65;98890.06;6245609;23;20016;-79
2022/11/03 02:36:33;;;;;;;2.30;1.85;;;;;;;27.88;20.19;98890.00;6245526;23;20082;-79
2022/11/03 02:39:27;;;;;;;5.00;2.15;;;;;;;27.84;20.28;98884.41;6245214;23;20039;-79
2022/11/03 02:41:57;;;;;;;5.38;2.17;;;;;;;27.92;20.34;98888.66;6245881;22;20035;-79
2022/11/03 02:44:25;;;;;;;5.47;2.28;;;;;;;27.71;20.11;98892.00;6245973;22;20045;-79
2022/11/03 02:46:57;;;;;;;3.00;1.92;;;;;;;27.51;19.93;98887.66;6245928;22;20015;-79
2022/11/03 02:49:23;;;;;;;5.35;2.03;;;;;;;27.31;20.50;98891.28;6246219;22;20083;-79
2022/11/03 02:52:03;;;;;;;4.63;2.03;;;;;;;27.18;20.61;98895.22;6245910;23;20012;-79
2022/11/03 02:54:34;;;;;;;3.72;2.30;;;;;;;27.13;20.73;98887.28;6245985;22;20052;-79
2022/11/03 02:57:17;;;;;;;6.10;2.50;;;;;;;27.13;20.26;98887.28;6245654;22;20011;-79
2022/11/03 02:59:59;;;;;;;5.78;2.33;;;;;;;26.74;21.49;98886.03;6245762;22;20016;-79
2022/11/03 03:02:37;;;;;;;4.07;1.85;;;;;;;26.87;20.71;98888.22;6245574;22;20008;-79
2022/11/03 03:05:09;;;;;;;4.15;1.83;;;;;;;26.54;21.11;98890.84;6244463;22;20083;-79
2022/11/03 03:07:44;;;;;;;5.18;2.17;;;;;;;26.45;21.43;98904.72;6245991;22;20376;-79
2022/11/03 03:10:17;;;;;;;2.83;1.88;;;;;;;26.54;21.18;98898.50;6245374;22;20016;-79
2022/11/03 03:12:57;;;;;;;4.55;2.33;;;;;;;26.78;20.90;98894.44;6244817;22;20019;-79
2022/11/03 03:15:43;;;;;;;4.57;2.03;;;;;;;26.76;20.77;98893.28;6245027;22;20012;-79
2022/11/03 03:18:41;;;;;;;4.45;1.80;;;;;;;26.86;20.48;98897.91;6245533;22;20083;-79
2022/11/03 03:21:36;;;;;;;5.30;2.38;;;;;;;27.13;20.48;98899.34;6205039;22;20012;-79
2022/11/03 03:24:08;;;;;;;8.15;2.30;;;;;;;27.37;19.96;98898.06;6245616;22;20083;-79
2022/11/03 03:26:40;;;;;;;5.07;3.28;;;;;;;27.39;19.85;98891.97;6245864;22;20426;-79
2022/11/03 03:29:24;;;;;;;4.85;3.17;;;;;;;27.28;19.66;98899.84;6245412;22;20034;-79
2022/11/03 03:31:57;;;;;;;4.35;2.53;;;;;;;27.33;19.46;98893.66;6244025;22;20016;-79
2022/11/03 03:34:26;;;;;;;4.60;2.67;;;;;;;27.39;19.58;98891.97;6244921;22;20008;-79
2022/11/03 03:36:57;;;;;;;4.57;2.38;;;;;;;27.42;19.53;98891.09;6245066;22;20015;-79
2022/11/03 03:39:27;;;;;;;6.10;2.47;;;;;;;27.52;19.36;98897.69;6245544;22;20036;-79
2022/11/03 03:41:56;;;;;;;4.22;2.22;;;;;;;27.53;19.17;98888.81;6244749;22;20011;-79
2022/11/03 03:44:23;;;;;;;2.08;1.50;;;;;;;27.60;19.46;98894.31;6245196;22;20035;-79
2022/11/03 03:46:58;;;;;;;4.78;1.80;;;;;;;27.53;19.29;98893.66;6244841;22;20008;-79
2022/11/03 03:49:24;;;;;;;3.17;1.70;;;;;;;27.50;19.00;98897.34;6244700;22;20004;-79
2022/11/03 03:51:51;;;;;;;4.38;2.35;;;;;;;27.25;19.41;98890.22;6245355;23;20004;-79
2022/11/03 03:54:17;;;;;;;3.72;1.80;;;;;;;26.99;19.43;98896.84;6244944;22;20505;-79
2022/11/03 03:56:58;;;;;;;4.60;1.90;;;;;;;26.54;19.89;98895.69;6245391;23;20008;-79
2022/11/03 03:59:24;;;;;;;4.15;2.28;;;;;;;26.44;19.92;98888.25;6245442;22;20066;-77
2022/11/03 04:01:50;;;;;;;3.10;1.98;;;;;;;26.58;20.13;98888.75;6244585;23;20024;-77
2022/11/03 04:04:16;;;;;;;4.25;2.75;;;;;;;26.65;19.95;98893.47;6244596;23;20007;-77
2022/11/03 04:06:42;;;;;;;4.53;2.20;;;;;;;26.64;20.29;98892.69;6245185;23;20004;-77
2022/11/03 04:09:09;;;;;;;3.28;1.33;;;;;;;26.46;20.09;98889.41;6246377;23;20058;-77
2022/11/03 04:22:38;;;;;;;3.67;2.00;;;;;;;25.81;20.93;98887.31;6246202;23;20038;-77
2022/11/03 04:25:05;;;;;;;3.67;2.03;;;;;;;25.83;20.93;98882.06;6246911;23;20692;-77
2022/11/03 04:27:36;;;;;;;3.38;1.75;;;;;;;26.06;21.05;98879.25;6244948;23;20103;-77
2022/11/03 04:30:18;;;;;;;4.25;1.90;;;;;;;26.34;20.02;98873.16;6246773;22;20012;-77
2022/11/03 04:32:48;;;;;;;4.07;1.83;;;;;;;26.38;19.94;98876.69;6246313;22;20434;-77
2022/11/03 04:35:23;;;;;;;5.75;2.38;;;;;;;26.43;19.70;98870.56;6246712;22;20437;-77
2022/11/03 04:38:02;;;;;;;3.85;2.05;;;;;;;26.29;19.71;98879.25;6246521;22;20012;-77
2022/11/03 04:40:28;;;;;;;6.35;2.67;;;;;;;26.24;19.83;98876.94;6246611;22;20012;-77
2022/11/03 04:42:54;;;;;;;5.10;2.80;;;;;;;26.20;20.01;98879.03;6245485;23;20008;-78
2022/11/03 04:45:30;;;;;;;3.40;2.00;;;;;;;26.18;20.16;98875.84;6246908;22;20004;-78
2022/11/03 04:48:00;;;;;;;2.17;1.67;;;;;;;26.34;20.05;98875.16;6246740;22;20079;-78
2022/11/03 04:50:26;;;;;;;2.72;1.60;;;;;;;26.43;20.00;98869.75;6246638;22;20345;-79
2022/11/03 04:52:57;;;;;;;4.15;2.20;;;;;;;26.59;19.48;98867.03;6245630;23;20012;-77
2022/11/03 04:55:24;;;;;;;4.97;2.83;;;;;;;26.67;19.51;98869.28;6245695;22;20012;-78
2022/11/03 04:57:59;;;;;;;4.53;2.70;;;;;;;26.40;20.02;98874.22;6246545;22;20012;-78
2022/11/03 05:00:25;;;;;;;6.35;2.88;;;;;;;26.36;20.37;98875.53;6246723;22;20024;-78
2022/11/03 05:02:51;;;;;;;3.28;2.45;;;;;;;26.35;20.03;98871.13;6246277;23;20011;-78
2022/11/03 05:05:23;;;;;;;4.65;1.90;;;;;;;26.45;20.06;98875.75;6246332;23;20035;-77
2022/11/03 05:07:52;;;;;;;4.70;2.40;;;;;;;26.59;19.74;98878.28;6246975;22;20019;-77
2022/11/03 05:10:23;;;;;;;5.43;2.42;;;;;;;26.55;19.86;98878.38;6246023;22;20008;-77
2022/11/03 05:12:50;;;;;;;4.47;2.60;;;;;;;26.67;19.35;98872.09;6244744;22;20161;-77
2022/11/03 05:15:36;;;;;;;4.07;2.63;;;;;;;26.53;20.01;98871.56;6245863;22;20008;-77
2022/11/03 05:18:17;;;;;;;3.15;2.60;;;;;;;26.48;19.51;98875.69;6246610;22;20449;-77
2022/11/03 05:20:49;;;;;;;6.25;2.88;;;;;;;26.60;19.04;98858.16;6245870;22;20452;-78
2022/11/03 05:23:17;;;;;;;3.25;2.03;;;;;;;26.69;19.07;98864.00;6245160;22;20050;-77
2022/11/03 05:25:46;;;;;;;4.18;2.67;;;;;;;26.73;18.78;98869.56;6245415;22;20004;-77
2022/11/03 05:28:24;;;;;;;6.15;2.88;;;;;;;26.55;19.00;98872.75;6246378;22;20012;-77
2022/11/03 05:30:51;;;;;;;4.47;2.85;;;;;;;26.59;19.19;98870.63;6245817;23;20044;-77
2022/11/03 05:33:22;;;;;;;3.08;2.13;;;;;;;26.38;19.28;98864.63;6244906;22;20406;-77
2022/11/03 05:35:48;;;;;;;;;;;;;;;26.05;19.87;98872.81;6246145;23;20341;-77
2022/11/03 05:38:17;;;;;;;6.00;2.47;;;;;;;25.87;20.67;98868.72;6245690;23;19908;-77
2022/11/03 05:40:44;;;;;;;4.05;2.25;;;;;;;25.66;20.97;98869.06;6245172;22;20430;-77
2022/11/03 05:43:13;;;;;;;3.58;2.78;;;;;;;25.86;20.39;98869.94;6244277;23;20020;-77
2022/11/03 05:45:40;;;;;;;3.45;2.63;;;;;;;25.84;20.83;98872.38;6246345;22;20012;-78
2022/11/03 05:48:17;;;;;;;3.55;2.38;;;;;;;25.61;20.91;98869.53;6245871;22;20106;-77
2022/11/03 05:50:43;;;;;;;4.38;2.10;;;;;;;26.05;20.46;98869.19;6243210;22;20111;-78
2022/11/03 05:53:30;;;;;;;8.48;2.60;;;;;;;26.35;19.89;98863.44;6245053;23;20358;-78
2022/11/03 05:55:59;;;;;;;3.88;2.33;;;;;;;26.39;19.78;98869.03;6243449;23;20008;-78
2022/11/03 05:58:36;;;;;;;3.63;2.13;;;;;;;26.31;19.98;98874.00;6245648;22;20008;-78
2022/11/03 06:01:19;;;;;;;4.95;2.70;;;;;;;26.31;20.27;98870.38;6244829;23;20337;-78
2022/11/03 06:03:46;;;;;;;4.20;2.45;;;;;;;26.35;20.18;98871.91;6246299;23;20004;-78
2022/11/03 06:06:32;;;;;;;4.72;2.50;;;;;;;26.55;20.00;98869.91;6246460;23;20473;-78
2022/11/03 06:09:02;;;;;;;3.92;2.35;;;;;;;26.77;19.82;98863.91;6246573;22;20019;-78
2022/11/03 06:11:37;;;;;;;4.38;2.20;;;;;;;26.89;19.69;98878.09;6246283;22;20498;-78
2022/11/03 06:14:16;;;;;;;4.63;1.98;;;;;;;26.84;19.82;98866.56;6246475;22;20008;-78
2022/11/03 06:16:46;;;;;;;5.68;2.00;;;;;;;27.03;19.25;98863.72;6246502;22;20011;-78
2022/11/03 06:19:21;;;;;;;2.97;2.08;;;;;;;26.95;19.14;98869.94;6246281;22;20012;-78
2022/11/03 06:21:50;;;;;;;2.58;1.75;;;;;;;26.97;19.65;98873.13;6245907;23;20004;-78
2022/11/03 06:24:19;;;;;;;3.58;2.15;;;;;;;27.15;19.68;98865.06;6246500;22;20008;-78
2022/11/03 06:26:47;;;;;;;3.33;1.83;;;;;;;27.11;19.32;98864.38;6246066;22;20011;-78
2022/11/03 06:29:18;;;;;;;2.85;2.10;;;;;;;26.96;19.50;98877.16;6246763;22;20013;-78
2022/11/03 06:31:46;;;;;;;;;;;;;;;27.04;19.61;98873.78;6246723;22;20346;-78
2022/11/03 06:34:33;;;;;;;3.90;1.95;;;;;;;27.15;19.87;98871.50;6246034;22;19911;-78
2022/11/03 06:37:08;;;;;;;2.85;2.03;;;;;;;27.19;19.60;98874.28;6246140;23;20012;-78
2022/11/03 06:39:34;;;;;;;2.55;1.65;;;;;;;27.05;20.40;98871.75;6246104;22;20010;-78
2022/11/03 06:42:13;;;;;;;3.80;2.30;;;;;;;26.88;20.46;98868.09;6246040;22;20008;-78
2022/11/03 06:44:48;;;;;;;3.05;1.92;;;;;;;27.10;20.14;98874.84;6246286;22;20008;-78
2022/11/03 06:47:25;;;;;;;3.15;2.28;;;;;;;27.25;20.14;98875.34;6246142;22;20008;-78
2022/11/03 06:49:58;;;;;;;2.35;1.67;;;;;;;27.07;20.45;98872.13;6246140;22;20008;-78
2022/11/03 06:52:29;;;;;;;2.28;1.92;;;;;;;27.12;20.30;98885.69;6245690;22;20338;-78
2022/11/03 06:55:06;;;;;;;2.70;1.80;;;;;;;27.34;20.14;98876.31;6246322;23;20047;-78
2022/11/03 06:57:36;;;;;;;6.57;1.95;;;;;;;27.48;20.07;98882.91;6245689;23;20019;-78
2022/11/03 07:00:26;;;;;;;2.38;1.88;;;;;;;27.52;20.15;98881.56;6246216;22;20004;-78
2022/11/03 07:03:09;;;;;;;5.05;2.72;;;;;;;27.70;20.82;98884.75;6245831;22;20062;-78
2022/11/03 07:05:36;;;;;;;4.85;2.08;;;;;;;27.72;20.50;98873.84;6246368;22;20016;-78
2022/11/03 07:08:16;;;;;;;3.15;2.55;;;;;;;27.43;21.01;98872.94;6246415;22;20012;-78
2022/11/03 07:10:42;;;;;;;4.57;2.65;;;;;;;27.33;21.48;98877.53;6245666;22;20004;-78
2022/11/03 07:13:21;;;;;;;4.88;2.50;;;;;;;27.45;21.22;98876.09;6245469;23;20023;-78
2022/11/03 07:15:47;;;;;;;3.97;2.53;;;;;;;27.52;21.52;98875.94;6244126;23;20039;-78
2022/11/03 07:18:28;;;;;;;5.15;2.83;;;;;;;27.70;21.58;98876.31;6245794;23;20008;-78
2022/11/03 07:20:54;;;;;;;;;;;;;;;27.96;21.49;98871.63;6246433;23;20016;-78
2022/11/03 07:23:27;;;;;;;3.88;2.30;;;;;;;28.23;21.03;98869.38;6245645;22;19914;-78
2022/11/03 07:25:57;;;;;;;4.25;2.45;;;;;;;28.19;20.92;98870.69;6243989;23;20489;-78
2022/11/03 07:28:33;;;;;;;5.22;2.58;;;;;;;28.16;21.18;98871.56;6245895;22;20016;-78
2022/11/03 07:31:05;;;;;;;4.45;2.20;;;;;;;28.23;21.21;98860.88;6245618;22;20077;-78
2022/11/03 07:33:31;;;;;;;3.85;1.95;;;;;;;27.46;22.15;98854.34;6245513;22;20465;-78
2022/11/03 07:35:59;;;;;;;3.45;2.10;;;;;;;27.29;22.53;98850.66;6245758;23;20014;-78
2022/11/03 07:38:26;;;;;;;3.15;1.92;;;;;;;26.57;23.35;98856.19;6246096;22;20386;-78
2022/11/03 07:40:55;;;;;;;4.85;2.38;;;;;;;26.97;23.15;98847.75;6245202;22;20008;-78
2022/11/03 07:43:30;;;;;;;5.95;2.25;;;;;;;26.99;23.33;98846.09;6245094;22;20027;-78
2022/11/03 07:45:59;;;;;;;3.58;2.20;;;;;;;27.14;23.25;98843.75;6245800;22;20004;-78
2022/11/03 07:48:48;;;;;;;3.67;1.90;;;;;;;26.84;23.46;98844.03;6245594;22;20342;-78
2022/11/03 07:51:14;;;;;;;6.13;2.60;;;;;;;26.13;23.93;98851.00;6245271;22;20027;-78
2022/11/03 07:53:46;;;;;;;6.15;2.15;;;;;;;27.20;23.56;98831.53;6244972;23;20369;-78
2022/11/03 07:56:19;;;;;;;2.88;2.00;;;;;;;26.84;23.66;98836.34;6245132;22;20005;-78
2022/11/03 07:58:50;;;;;;;8.25;2.72;;;;;;;26.83;23.36;98836.78;6245581;22;20379;-78
2022/11/03 08:01:25;;;;;;;4.65;2.17;;;;;;;27.65;22.93;98825.25;6245687;22;20006;-78
2022/11/03 08:03:55;;;;;;;5.00;2.58;;;;;;;26.57;24.10;98827.22;6245452;22;20058;-78
2022/11/03 08:06:21;;;;;;;2.47;1.80;;;;;;;26.81;23.59;98820.31;6243788;22;20363;-78
2022/11/03 08:08:47;;;;;;;6.55;2.30;;;;;;;26.09;24.71;98817.25;6245278;23;20445;-78
2022/11/03 08:11:13;;;;;;;3.35;2.45;;;;;;;26.68;24.27;98810.91;6245894;23;20365;-78
2022/11/03 08:13:39;;;;;;;4.25;2.28;;;;;;;25.86;25.56;98810.84;6245291;23;20070;-78
2022/11/03 08:16:05;;;;;;;5.32;2.10;;;;;;;25.66;26.15;98810.00;6245553;23;20083;-78
2022/11/03 08:18:31;;;;;;;4.25;2.40;;;;;;;25.53;26.17;98801.38;6245534;23;20007;-78
2022/11/03 08:20:57;;;;;;;4.70;2.25;;;;;;;25.51;26.27;98800.22;6245309;23;20004;-77
2022/11/03 08:23:23;;;;;;;5.13;1.98;;;;;;;26.34;25.26;98793.50;6244866;23;20438;-78
2022/11/03 08:25:49;;;;;;;3.83;2.03;;;;;;;27.53;23.99;98780.81;6245259;23;20347;-78
2022/11/03 08:28:15;;;;;;;3.58;2.03;;;;;;;28.36;22.70;98782.66;6245230;23;20454;-78
2022/11/03 08:30:41;;;;;;;3.47;1.55;;;;;;;28.32;23.08;98775.50;6245787;23;20004;-78
2022/11/03 08:33:07;;;;;;;3.75;2.15;;;;;;;28.59;22.57;98778.81;6245215;23;20023;-78
2022/11/03 08:35:33;;;;;;;3.67;1.83;;;;;;;28.68;22.05;98776.88;6245589;23;20460;-78
2022/11/03 08:37:59;;;;;;;4.03;2.53;;;;;;;27.77;23.36;98777.34;6243204;23;20346;-78
2022/11/03 08:40:25;;;;;;;4.43;1.95;;;;;;;28.32;23.02;98767.03;6245242;23;20015;-78
2022/11/03 08:42:51;;;;;;;3.92;1.92;;;;;;;28.64;22.01;98769.75;6243871;23;20043;-78
2022/11/03 08:45:17;;;;;;;5.97;1.92;;;;;;;28.70;22.42;98767.97;6245168;23;20485;-78
2022/11/03 08:47:43;;;;;;;6.93;2.40;;;;;;;27.75;23.18;98762.13;6245328;23;20430;-78
2022/11/03 08:50:10;;;;;;;3.03;1.33;;;;;;;28.38;22.23;98762.44;6243609;23;20426;-78
2022/11/03 08:52:36;;;;;;;3.65;1.98;;;;;;;28.89;21.54;98760.53;6243407;23;20319;-78
2022/11/03 08:55:02;;;;;;;3.40;1.73;;;;;;;29.33;21.48;98754.69;6245518;23;20016;-78
2022/11/03 08:57:28;;;;;;;2.35;1.27;;;;;;;29.63;21.29;98752.50;6246841;22;20812;-78
2022/11/03 08:59:55;;;;;;;3.17;1.50;;;;;;;29.84;21.10;98751.78;6247104;23;20019;-78
2022/11/03 09:02:21;;;;;;;1.85;1.27;;;;;;;29.84;20.61;98752.59;6247183;22;20004;-78
2022/11/03 09:04:47;;;;;;;3.30;1.45;;;;;;;29.22;21.76;98742.16;6247244;22;20004;-78
2022/11/03 09:07:13;;;;;;;5.05;1.50;;;;;;;29.03;22.16;98749.59;6247109;23;20011;-78
2022/11/03 09:09:39;;;;;;;3.00;1.75;;;;;;;26.51;25.15;98748.06;6247118;23;20138;-78
2022/11/03 09:12:05;;;;;;;3.58;1.50;;;;;;;27.58;23.85;98735.97;6245259;23;20013;-78
2022/11/03 09:14:31;;;;;;;2.88;1.00;;;;;;;29.01;22.14;98748.47;6246789;23;20015;-78
2022/11/03 09:16:57;;;;;;;2.65;1.27;;;;;;;29.19;21.81;98738.19;6246924;23;20012;-78
2022/11/03 09:19:23;;;;;;;2.78;1.10;;;;;;;27.55;22.82;98734.00;6246971;23;20360;-78
2022/11/03 09:21:51;;;;;;;4.30;1.52;;;;;;;27.23;23.96;98734.78;6246779;23;20462;-78
2022/11/03 09:24:17;;;;;;;2.45;1.13;;;;;;;27.11;23.20;98735.50;6246800;22;20480;-78
2022/11/03 09:26:43;;;;;;;2.17;0.90;;;;;;;28.36;22.49;98723.31;6246595;23;20446;-78
2022/11/03 09:29:09;;;;;;;2.97;1.13;;;;;;;27.76;23.40;98719.34;6246381;23;20438;-78
2022/11/03 09:31:35;;;;;;;3.75;1.40;;;;;;;28.48;22.44;98718.94;6246511;23;20012;-79
2022/11/03 09:34:01;;;;;;;1.38;0.90;;;;;;;27.86;22.18;98720.31;6246649;22;20046;-78
2022/11/03 09:36:28;;;;;;;1.75;0.82;;;;;;;29.34;20.96;98715.88;6246376;22;20016;-80
2022/11/03 09:38:54;;;;;;;3.08;1.63;;;;;;;28.72;21.97;98709.75;6246468;23;20004;-79
2022/11/03 09:41:20;;;;;;;4.25;1.00;;;;;;;29.00;21.86;98712.94;6246646;23;20016;-79
2022/11/03 09:43:47;;;;;;;3.20;1.60;;;;;;;27.26;23.74;98707.72;6246825;23;20001;-79
2022/11/03 09:46:14;;;;;;;2.53;1.30;;;;;;;28.00;23.22;98697.34;6246527;22;20127;-79
2022/11/03 09:48:41;;;;;;;4.18;2.00;;;;;;;25.30;27.05;98695.28;6246707;22;20008;-79
2022/11/03 09:51:17;;;;;;;4.47;1.67;;;;;;;26.14;25.57;98689.31;6246458;23;20032;-79
2022/11/03 09:53:44;;;;;;;4.00;1.70;;;;;;;27.51;24.47;98682.53;6246923;22;20083;-79
2022/11/03 09:56:10;;;;;;;3.10;1.50;;;;;;;26.64;25.68;98683.41;6246432;23;20008;-79
2022/11/03 09:58:36;;;;;;;2.65;1.27;;;;;;;28.17;23.14;98683.97;6246559;23;20050;-79
2022/11/03 10:01:03;;;;;;;2.40;1.02;;;;;;;28.58;22.53;98689.59;6246920;23;20009;-80
2022/11/03 10:03:29;;;;;;;2.63;1.10;;;;;;;28.76;22.44;98681.38;6246310;22;20008;-79
2022/11/03 10:05:58;;;;;;;2.95;1.20;;;;;;;28.06;23.52;98679.41;6245953;23;20084;-79
2022/11/03 10:08:34;;;;;;;3.03;1.02;;;;;;;27.17;22.58;98671.69;6246212;23;20004;-79
2022/11/03 10:11:01;;;;;;;2.78;1.05;;;;;;;27.29;24.41;98676.63;6246697;22;20130;-80
2022/11/03 10:13:41;;;;;;;2.50;1.27;;;;;;;26.87;23.74;98669.22;6246356;22;20449;-79
2022/11/03 10:16:10;;;;;;;2.40;1.30;;;;;;;26.28;25.46;98663.69;6246481;22;20083;-79
2022/11/03 10:18:36;;;;;;;1.40;1.10;;;;;;;28.00;22.90;98663.47;6246181;22;20032;-79
2022/11/03 10:21:32;;;;;;;2.58;1.05;;;;;;;29.52;22.16;98655.84;6246481;22;20015;-79
2022/11/03 10:23:59;;;;;;;3.65;1.08;;;;;;;29.67;22.32;98654.88;6232196;22;20102;-79
2022/11/03 10:26:25;;;;;;;1.45;1.00;;;;;;;30.55;20.67;98650.84;6245591;23;20008;-79
2022/11/03 10:29:07;;;;;;;3.95;1.15;;;;;;;27.47;23.08;98653.63;6245649;23;20042;-79
2022/11/03 10:31:38;;;;;;;2.55;1.05;;;;;;;26.96;25.11;98649.66;6246249;22;20032;-78
2022/11/03 10:34:22;;;;;;;5.90;1.98;;;;;;;26.12;26.36;98643.94;6245640;22;20012;-79
2022/11/03 10:36:48;;;;;;;2.85;1.20;;;;;;;26.69;25.06;98649.09;6245629;22;20091;-78
2022/11/03 10:39:29;;;;;;;2.85;1.38;;;;;;;26.46;24.93;98643.59;6245810;22;20008;-78
2022/11/03 10:41:57;;;;;;;;;;;;;;;27.46;22.08;98629.47;6247107;22;20047;-78
2022/11/03 10:44:27;;;;;;;4.03;0.98;;;;;;;28.56;21.97;98632.75;6246118;22;19908;-78
2022/11/03 10:47:02;;;;;;;3.70;1.77;;;;;;;27.64;23.30;98620.53;6246228;22;20036;-78
2022/11/03 10:49:30;;;;;;;2.13;1.20;;;;;;;28.52;23.22;98624.38;6246095;22;20062;-78
2022/11/03 10:52:21;;;;;;;4.03;1.42;;;;;;;27.89;23.38;98623.44;6246168;22;20012;-78
2022/11/03 10:54:49;;;;;;;4.05;1.60;;;;;;;27.14;24.78;98609.78;6246033;22;20008;-78
2022/11/03 10:57:16;;;;;;;3.35;1.17;;;;;;;27.67;24.32;98606.34;6244899;22;20087;-79
2022/11/03 10:59:45;;;;;;;3.63;1.73;;;;;;;26.94;24.73;98603.44;6245390;22;20402;-79
2022/11/03 11:02:18;;;;;;;2.38;1.20;;;;;;;27.66;24.02;98596.28;6243821;23;20016;-79
2022/11/03 11:04:47;;;;;;;1.83;1.00;;;;;;;29.35;20.89;98592.97;6245907;22;20013;-79
2022/11/03 11:07:23;;;;;;;4.18;1.13;;;;;;;29.18;23.26;98594.38;6245924;22;20050;-79
2022/11/03 11:09:50;;;;;;;3.42;1.00;;;;;;;28.13;22.89;98593.72;6245483;22;20079;-79
2022/11/03 11:12:24;;;;;;;2.92;1.20;;;;;;;27.06;25.01;98575.34;6245942;22;20014;-79
2022/11/03 11:14:56;;;;;;;2.50;1.00;;;;;;;28.30;22.80;98575.44;6245773;22;20022;-80
2022/11/03 11:17:41;;;;;;;1.60;0.90;;;;;;;29.87;21.09;98559.13;6245418;22;20083;-79
2022/11/03 11:20:26;;;;;;;1.45;1.05;;;;;;;30.58;20.70;98559.97;6246053;22;20058;-78
2022/11/03 11:22:52;;;;;;;3.45;1.30;;;;;;;29.04;22.61;98564.53;6245165;22;20744;-79
2022/11/03 11:25:19;;;;;;;3.53;1.33;;;;;;;29.17;21.85;98541.88;6244958;23;20023;-81
2022/11/03 11:27:45;;;;;;;2.25;0.95;;;;;;;28.59;23.14;98545.06;6243996;22;20012;-80
2022/11/03 11:30:20;;;;;;;2.65;1.20;;;;;;;29.31;21.68;98547.81;6245516;23;20040;-80
2022/11/03 11:32:54;;;;;;;2.38;1.20;;;;;;;27.27;24.97;98540.94;6244774;23;20008;-79
2022/11/03 11:35:26;;;;;;;4.88;1.10;;;;;;;27.87;22.59;98539.22;6243441;22;20019;-80
2022/11/03 11:37:53;;;;;;;2.55;1.02;;;;;;;28.38;22.66;98533.66;6245228;22;20008;-80
2022/11/03 11:40:25;;;;;;;2.38;1.15;;;;;;;27.32;25.87;98526.28;6245138;22;20020;-80
2022/11/03 11:43:10;;;;;;;3.90;1.50;;;;;;;25.26;24.70;98525.13;6243366;23;20016;-79
2022/11/03 11:46:13;;;;;;;5.20;1.75;;;;;;;24.93;24.82;98514.91;6245651;22;20008;-79
2022/11/03 11:48:39;;;;;;;4.75;1.40;;;;;;;25.09;26.59;98515.78;6245557;23;20031;-79
2022/11/03 11:51:10;;;;;;;3.15;1.20;;;;;;;25.94;26.22;98505.63;6245445;23;20418;-79
2022/11/03 11:53:38;;;;;;;;;;;;;;;27.66;22.07;98503.16;6245995;22;20015;-78
2022/11/03 11:56:07;;;;;;;2.72;1.08;;;;;;;27.89;24.50;98499.28;6244901;22;19911;-79
2022/11/03 11:58:36;;;;;;;2.83;1.20;;;;;;;27.84;22.47;98489.31;6245137;22;20062;-79
2022/11/03 12:01:18;;;;;;;6.13;1.38;;;;;;;27.63;23.87;98484.34;6245036;23;20341;-79
2022/11/03 12:03:45;;;;;;;3.15;1.00;;;;;;;27.33;24.72;98481.94;6245281;22;20005;-79
2022/11/03 12:06:15;;;;;;;3.08;1.20;;;;;;;26.56;25.90;98477.19;6245524;22;20568;-79
2022/11/03 12:08:42;;;;;;;3.67;1.40;;;;;;;25.88;26.31;98470.81;6245548;22;20087;-79